All City Stadium (Denver), Colorado
Current Conditions -  °F | °C
As of 12:53 AM on Saturday 20 Dec 2014 (Local Time) from KAPA Reporting Station
Scattered Clouds Scattered Clouds  
Wind Chill: 27°   Ceiling: Unl
Heat Index: 27°   Visibility: 10mi
Dew Point: 16°   Wind: 3mph
Humidity: 63%   Direction: 150°SSE
Pressure: 30"   Gusts: NA
Location:  39.69109°N, 104.9663°W
Report Text: KAPA 200753Z 15003KT 10SM SCT200 M03/M09 A3000 RMK AO2 SLP179 T10281089
Loading
Personal Weather Stations






























Interactive Weather Map New forecast layout! Learn more

10-Day Weather Forecast

Advertisements
Track Severe Weather on mobile